sensor_id;sensor_type;location;lat;lon;timestamp;P1;durP1;ratioP1;P2;durP2;ratioP2
33266;SDS011;19638;49.080;11.896;2023-09-08T00:01:22;14.15;;;6.05;;
33266;SDS011;19638;49.080;11.896;2023-09-08T00:05:26;5.82;;;5.13;;
33266;SDS011;19638;49.080;11.896;2023-09-08T00:09:33;8.68;;;5.53;;
33266;SDS011;19638;49.080;11.896;2023-09-08T00:13:40;9.73;;;4.82;;
33266;SDS011;19638;49.080;11.896;2023-09-08T00:17:46;6.97;;;5.45;;
33266;SDS011;19638;49.080;11.896;2023-09-08T00:21:50;7.95;;;5.15;;
33266;SDS011;19638;49.080;11.896;2023-09-08T00:25:56;6.40;;;5.13;;
33266;SDS011;19638;49.080;11.896;2023-09-08T00:30:02;7.25;;;4.80;;
33266;SDS011;19638;49.080;11.896;2023-09-08T00:34:05;7.00;;;4.63;;
33266;SDS011;19638;49.080;11.896;2023-09-08T00:38:13;8.35;;;5.28;;
33266;SDS011;19638;49.080;11.896;2023-09-08T00:42:16;6.57;;;5.20;;
33266;SDS011;19638;49.080;11.896;2023-09-08T00:46:21;5.45;;;4.60;;
33266;SDS011;19638;49.080;11.896;2023-09-08T00:50:27;6.35;;;4.82;;
33266;SDS011;19638;49.080;11.896;2023-09-08T00:54:32;6.75;;;5.03;;
33266;SDS011;19638;49.080;11.896;2023-09-08T00:58:38;6.38;;;4.80;;
33266;SDS011;19638;49.080;11.896;2023-09-08T01:02:43;13.35;;;5.03;;
33266;SDS011;19638;49.080;11.896;2023-09-08T01:06:46;9.88;;;5.15;;
33266;SDS011;19638;49.080;11.896;2023-09-08T01:10:52;4.70;;;4.13;;
33266;SDS011;19638;49.080;11.896;2023-09-08T01:14:58;5.93;;;4.53;;
33266;SDS011;19638;49.080;11.896;2023-09-08T01:19:05;8.57;;;4.93;;
33266;SDS011;19638;49.080;11.896;2023-09-08T01:23:17;5.32;;;4.82;;
33266;SDS011;19638;49.080;11.896;2023-09-08T01:27:28;8.23;;;5.13;;
33266;SDS011;19638;49.080;11.896;2023-09-08T01:31:35;9.10;;;5.07;;
33266;SDS011;19638;49.080;11.896;2023-09-08T01:35:39;7.32;;;4.90;;
33266;SDS011;19638;49.080;11.896;2023-09-08T01:39:46;7.82;;;4.88;;
33266;SDS011;19638;49.080;11.896;2023-09-08T01:43:53;7.80;;;5.05;;
33266;SDS011;19638;49.080;11.896;2023-09-08T01:47:58;8.05;;;5.13;;
33266;SDS011;19638;49.080;11.896;2023-09-08T01:52:19;8.45;;;5.20;;
33266;SDS011;19638;49.080;11.896;2023-09-08T01:56:25;6.85;;;4.60;;
33266;SDS011;19638;49.080;11.896;2023-09-08T02:00:32;5.38;;;4.70;;
33266;SDS011;19638;49.080;11.896;2023-09-08T02:04:36;7.35;;;5.15;;
33266;SDS011;19638;49.080;11.896;2023-09-08T02:08:41;7.70;;;5.35;;
33266;SDS011;19638;49.080;11.896;2023-09-08T02:12:44;8.82;;;5.38;;
33266;SDS011;19638;49.080;11.896;2023-09-08T02:16:51;7.80;;;5.40;;
33266;SDS011;19638;49.080;11.896;2023-09-08T02:20:54;7.22;;;5.70;;
33266;SDS011;19638;49.080;11.896;2023-09-08T02:25:03;9.07;;;5.45;;
33266;SDS011;19638;49.080;11.896;2023-09-08T02:29:07;7.30;;;5.50;;
33266;SDS011;19638;49.080;11.896;2023-09-08T02:33:11;6.78;;;5.75;;
33266;SDS011;19638;49.080;11.896;2023-09-08T02:37:15;12.50;;;6.10;;
33266;SDS011;19638;49.080;11.896;2023-09-08T02:41:20;10.43;;;6.03;;
33266;SDS011;19638;49.080;11.896;2023-09-08T02:45:28;9.63;;;6.30;;
33266;SDS011;19638;49.080;11.896;2023-09-08T02:49:38;9.55;;;6.00;;
33266;SDS011;19638;49.080;11.896;2023-09-08T02:53:42;10.60;;;6.22;;
33266;SDS011;19638;49.080;11.896;2023-09-08T02:57:49;8.15;;;5.68;;
33266;SDS011;19638;49.080;11.896;2023-09-08T03:01:56;7.57;;;5.97;;
33266;SDS011;19638;49.080;11.896;2023-09-08T03:06:02;6.18;;;5.35;;
33266;SDS011;19638;49.080;11.896;2023-09-08T03:10:07;7.72;;;5.93;;
33266;SDS011;19638;49.080;11.896;2023-09-08T03:14:14;10.45;;;5.97;;
33266;SDS011;19638;49.080;11.896;2023-09-08T03:18:17;8.68;;;6.20;;
33266;SDS011;19638;49.080;11.896;2023-09-08T03:22:24;11.00;;;6.07;;
33266;SDS011;19638;49.080;11.896;2023-09-08T03:26:32;9.20;;;5.78;;
33266;SDS011;19638;49.080;11.896;2023-09-08T03:30:35;8.55;;;5.78;;
33266;SDS011;19638;49.080;11.896;2023-09-08T03:34:40;11.57;;;5.95;;
33266;SDS011;19638;49.080;11.896;2023-09-08T03:38:44;8.93;;;5.88;;
33266;SDS011;19638;49.080;11.896;2023-09-08T03:42:47;9.65;;;6.45;;
33266;SDS011;19638;49.080;11.896;2023-09-08T03:46:52;8.70;;;6.35;;
33266;SDS011;19638;49.080;11.896;2023-09-08T03:50:57;12.30;;;6.63;;
33266;SDS011;19638;49.080;11.896;2023-09-08T03:55:02;13.35;;;6.93;;
33266;SDS011;19638;49.080;11.896;2023-09-08T03:59:07;9.40;;;6.18;;
33266;SDS011;19638;49.080;11.896;2023-09-08T04:03:12;14.40;;;6.40;;
33266;SDS011;19638;49.080;11.896;2023-09-08T04:07:15;9.80;;;7.15;;
33266;SDS011;19638;49.080;11.896;2023-09-08T04:11:20;12.55;;;6.68;;
33266;SDS011;19638;49.080;11.896;2023-09-08T04:15:23;10.60;;;6.45;;
33266;SDS011;19638;49.080;11.896;2023-09-08T04:19:29;11.10;;;6.63;;
33266;SDS011;19638;49.080;11.896;2023-09-08T04:23:32;10.27;;;7.18;;
33266;SDS011;19638;49.080;11.896;2023-09-08T04:27:37;13.43;;;7.13;;
33266;SDS011;19638;49.080;11.896;2023-09-08T04:31:43;11.07;;;7.07;;
33266;SDS011;19638;49.080;11.896;2023-09-08T04:35:46;10.60;;;6.25;;
33266;SDS011;19638;49.080;11.896;2023-09-08T04:39:50;10.65;;;6.60;;
33266;SDS011;19638;49.080;11.896;2023-09-08T04:43:54;11.48;;;7.38;;
33266;SDS011;19638;49.080;11.896;2023-09-08T04:48:02;10.90;;;6.45;;
33266;SDS011;19638;49.080;11.896;2023-09-08T04:52:07;11.30;;;7.22;;
33266;SDS011;19638;49.080;11.896;2023-09-08T04:56:10;12.00;;;7.07;;
33266;SDS011;19638;49.080;11.896;2023-09-08T05:00:16;10.60;;;7.07;;
33266;SDS011;19638;49.080;11.896;2023-09-08T05:04:20;13.82;;;8.23;;
33266;SDS011;19638;49.080;11.896;2023-09-08T05:08:24;11.02;;;7.05;;
33266;SDS011;19638;49.080;11.896;2023-09-08T05:12:30;12.90;;;7.10;;
33266;SDS011;19638;49.080;11.896;2023-09-08T05:16:35;11.43;;;7.93;;
33266;SDS011;19638;49.080;11.896;2023-09-08T05:20:48;16.70;;;8.05;;
33266;SDS011;19638;49.080;11.896;2023-09-08T05:24:51;13.77;;;8.45;;
33266;SDS011;19638;49.080;11.896;2023-09-08T05:28:54;8.52;;;6.35;;
33266;SDS011;19638;49.080;11.896;2023-09-08T05:33:28;10.35;;;7.50;;
33266;SDS011;19638;49.080;11.896;2023-09-08T05:37:31;11.52;;;6.90;;
33266;SDS011;19638;49.080;11.896;2023-09-08T05:41:35;12.68;;;7.60;;
33266;SDS011;19638;49.080;11.896;2023-09-08T05:45:38;11.75;;;7.38;;
33266;SDS011;19638;49.080;11.896;2023-09-08T05:49:42;9.88;;;7.15;;
33266;SDS011;19638;49.080;11.896;2023-09-08T05:53:49;9.00;;;6.80;;
33266;SDS011;19638;49.080;11.896;2023-09-08T05:57:54;14.18;;;6.75;;
33266;SDS011;19638;49.080;11.896;2023-09-08T06:01:57;15.48;;;6.53;;
33266;SDS011;19638;49.080;11.896;2023-09-08T06:06:01;9.23;;;6.70;;
33266;SDS011;19638;49.080;11.896;2023-09-08T06:10:05;11.43;;;6.72;;
33266;SDS011;19638;49.080;11.896;2023-09-08T06:14:10;10.60;;;6.28;;
33266;SDS011;19638;49.080;11.896;2023-09-08T06:18:13;10.00;;;6.32;;
33266;SDS011;19638;49.080;11.896;2023-09-08T06:22:18;12.43;;;7.03;;
33266;SDS011;19638;49.080;11.896;2023-09-08T06:26:21;15.10;;;6.68;;
33266;SDS011;19638;49.080;11.896;2023-09-08T06:30:24;11.63;;;6.63;;
33266;SDS011;19638;49.080;11.896;2023-09-08T06:34:27;11.00;;;6.53;;
33266;SDS011;19638;49.080;11.896;2023-09-08T06:38:33;7.68;;;6.00;;
33266;SDS011;19638;49.080;11.896;2023-09-08T06:42:37;11.02;;;6.50;;
33266;SDS011;19638;49.080;11.896;2023-09-08T06:46:41;14.13;;;6.35;;
33266;SDS011;19638;49.080;11.896;2023-09-08T06:50:45;10.05;;;6.13;;
33266;SDS011;19638;49.080;11.896;2023-09-08T06:54:50;9.45;;;5.07;;
33266;SDS011;19638;49.080;11.896;2023-09-08T06:58:54;7.20;;;5.35;;
33266;SDS011;19638;49.080;11.896;2023-09-08T07:03:00;13.40;;;6.72;;
33266;SDS011;19638;49.080;11.896;2023-09-08T07:07:04;12.35;;;6.20;;
33266;SDS011;19638;49.080;11.896;2023-09-08T07:11:16;9.30;;;5.47;;
33266;SDS011;19638;49.080;11.896;2023-09-08T07:15:20;13.30;;;6.13;;
33266;SDS011;19638;49.080;11.896;2023-09-08T07:19:23;8.35;;;5.43;;
33266;SDS011;19638;49.080;11.896;2023-09-08T07:23:28;17.80;;;5.80;;
33266;SDS011;19638;49.080;11.896;2023-09-08T07:27:35;8.43;;;6.10;;
33266;SDS011;19638;49.080;11.896;2023-09-08T07:31:38;7.95;;;5.70;;
33266;SDS011;19638;49.080;11.896;2023-09-08T07:35:42;8.00;;;5.82;;
33266;SDS011;19638;49.080;11.896;2023-09-08T07:39:47;9.90;;;5.25;;
33266;SDS011;19638;49.080;11.896;2023-09-08T07:43:52;12.98;;;5.82;;
33266;SDS011;19638;49.080;11.896;2023-09-08T07:47:58;9.07;;;5.60;;
33266;SDS011;19638;49.080;11.896;2023-09-08T07:52:01;4.57;;;4.03;;
33266;SDS011;19638;49.080;11.896;2023-09-08T07:56:05;8.77;;;4.70;;
33266;SDS011;19638;49.080;11.896;2023-09-08T08:00:12;8.60;;;4.78;;
33266;SDS011;19638;49.080;11.896;2023-09-08T08:04:18;6.40;;;4.40;;
33266;SDS011;19638;49.080;11.896;2023-09-08T08:08:22;6.22;;;5.00;;
33266;SDS011;19638;49.080;11.896;2023-09-08T08:12:25;6.03;;;4.85;;
33266;SDS011;19638;49.080;11.896;2023-09-08T08:16:30;5.72;;;4.70;;
33266;SDS011;19638;49.080;11.896;2023-09-08T08:20:34;8.38;;;4.80;;
33266;SDS011;19638;49.080;11.896;2023-09-08T08:24:37;5.97;;;4.55;;
33266;SDS011;19638;49.080;11.896;2023-09-08T08:28:40;5.70;;;4.35;;
33266;SDS011;19638;49.080;11.896;2023-09-08T08:32:46;9.80;;;4.43;;
33266;SDS011;19638;49.080;11.896;2023-09-08T08:36:53;6.55;;;4.05;;
33266;SDS011;19638;49.080;11.896;2023-09-08T08:41:01;5.90;;;4.20;;
33266;SDS011;19638;49.080;11.896;2023-09-08T08:45:08;7.57;;;4.55;;
33266;SDS011;19638;49.080;11.896;2023-09-08T08:49:13;7.53;;;4.25;;
33266;SDS011;19638;49.080;11.896;2023-09-08T08:53:18;10.25;;;4.45;;
33266;SDS011;19638;49.080;11.896;2023-09-08T08:57:24;8.75;;;4.97;;
33266;SDS011;19638;49.080;11.896;2023-09-08T09:01:34;4.32;;;3.95;;
33266;SDS011;19638;49.080;11.896;2023-09-08T09:05:39;8.90;;;4.80;;
33266;SDS011;19638;49.080;11.896;2023-09-08T09:09:48;4.45;;;4.05;;
33266;SDS011;19638;49.080;11.896;2023-09-08T09:13:54;7.07;;;4.28;;
33266;SDS011;19638;49.080;11.896;2023-09-08T09:18:06;5.03;;;4.50;;
33266;SDS011;19638;49.080;11.896;2023-09-08T09:22:13;8.63;;;4.43;;
33266;SDS011;19638;49.080;11.896;2023-09-08T09:26:23;7.15;;;4.35;;
33266;SDS011;19638;49.080;11.896;2023-09-08T09:30:48;6.32;;;4.10;;
33266;SDS011;19638;49.080;11.896;2023-09-08T09:34:54;4.72;;;3.92;;
33266;SDS011;19638;49.080;11.896;2023-09-08T09:39:00;5.00;;;3.90;;
33266;SDS011;19638;49.080;11.896;2023-09-08T09:43:05;8.88;;;4.57;;
33266;SDS011;19638;49.080;11.896;2023-09-08T09:47:09;7.15;;;4.35;;
33266;SDS011;19638;49.080;11.896;2023-09-08T09:51:17;9.13;;;4.43;;
33266;SDS011;19638;49.080;11.896;2023-09-08T09:55:23;4.97;;;4.28;;
33266;SDS011;19638;49.080;11.896;2023-09-08T09:59:28;8.10;;;4.25;;
33266;SDS011;19638;49.080;11.896;2023-09-08T10:03:34;6.95;;;3.97;;
33266;SDS011;19638;49.080;11.896;2023-09-08T10:07:38;5.80;;;4.22;;
33266;SDS011;19638;49.080;11.896;2023-09-08T10:11:47;7.07;;;4.32;;
33266;SDS011;19638;49.080;11.896;2023-09-08T10:15:51;5.65;;;3.88;;
33266;SDS011;19638;49.080;11.896;2023-09-08T10:20:00;4.70;;;4.00;;
33266;SDS011;19638;49.080;11.896;2023-09-08T10:24:14;4.70;;;4.07;;
33266;SDS011;19638;49.080;11.896;2023-09-08T10:28:27;8.57;;;4.10;;
33266;SDS011;19638;49.080;11.896;2023-09-08T10:32:31;5.82;;;4.25;;
33266;SDS011;19638;49.080;11.896;2023-09-08T10:36:36;6.43;;;3.80;;
33266;SDS011;19638;49.080;11.896;2023-09-08T10:40:43;7.30;;;4.22;;
33266;SDS011;19638;49.080;11.896;2023-09-08T10:44:55;4.97;;;4.35;;
33266;SDS011;19638;49.080;11.896;2023-09-08T10:49:06;3.97;;;3.58;;
33266;SDS011;19638;49.080;11.896;2023-09-08T10:53:13;6.85;;;4.28;;
33266;SDS011;19638;49.080;11.896;2023-09-08T10:57:20;4.90;;;4.07;;
33266;SDS011;19638;49.080;11.896;2023-09-08T11:01:28;6.78;;;4.25;;
33266;SDS011;19638;49.080;11.896;2023-09-08T11:05:42;8.10;;;4.18;;
33266;SDS011;19638;49.080;11.896;2023-09-08T11:09:46;8.00;;;3.97;;
33266;SDS011;19638;49.080;11.896;2023-09-08T11:13:50;10.45;;;3.92;;
33266;SDS011;19638;49.080;11.896;2023-09-08T11:17:56;6.72;;;4.07;;
33266;SDS011;19638;49.080;11.896;2023-09-08T11:22:00;7.88;;;4.32;;
33266;SDS011;19638;49.080;11.896;2023-09-08T11:26:04;6.82;;;4.22;;
33266;SDS011;19638;49.080;11.896;2023-09-08T11:30:10;6.57;;;4.25;;
33266;SDS011;19638;49.080;11.896;2023-09-08T11:34:18;6.85;;;4.32;;
33266;SDS011;19638;49.080;11.896;2023-09-08T11:38:27;5.88;;;4.15;;
33266;SDS011;19638;49.080;11.896;2023-09-08T11:42:31;8.10;;;3.75;;
33266;SDS011;19638;49.080;11.896;2023-09-08T11:46:38;6.38;;;4.15;;
33266;SDS011;19638;49.080;11.896;2023-09-08T11:50:44;4.50;;;4.10;;
33266;SDS011;19638;49.080;11.896;2023-09-08T11:54:47;6.60;;;4.57;;
33266;SDS011;19638;49.080;11.896;2023-09-08T11:59:07;5.22;;;4.25;;
33266;SDS011;19638;49.080;11.896;2023-09-08T12:03:13;5.50;;;3.72;;
33266;SDS011;19638;49.080;11.896;2023-09-08T12:07:19;7.97;;;4.22;;
33266;SDS011;19638;49.080;11.896;2023-09-08T12:11:23;5.65;;;4.35;;
33266;SDS011;19638;49.080;11.896;2023-09-08T12:15:30;4.63;;;4.20;;
33266;SDS011;19638;49.080;11.896;2023-09-08T12:19:34;4.22;;;3.83;;
33266;SDS011;19638;49.080;11.896;2023-09-08T12:23:53;8.27;;;4.15;;
33266;SDS011;19638;49.080;11.896;2023-09-08T12:27:58;7.50;;;4.28;;
33266;SDS011;19638;49.080;11.896;2023-09-08T12:32:02;7.10;;;3.95;;
33266;SDS011;19638;49.080;11.896;2023-09-08T12:36:12;5.40;;;4.38;;
33266;SDS011;19638;49.080;11.896;2023-09-08T12:40:19;5.65;;;4.15;;
33266;SDS011;19638;49.080;11.896;2023-09-08T12:44:23;5.15;;;4.15;;
33266;SDS011;19638;49.080;11.896;2023-09-08T12:48:29;6.03;;;4.28;;
33266;SDS011;19638;49.080;11.896;2023-09-08T12:52:37;4.70;;;3.85;;
33266;SDS011;19638;49.080;11.896;2023-09-08T12:56:42;5.93;;;4.25;;
33266;SDS011;19638;49.080;11.896;2023-09-08T13:00:45;4.88;;;3.90;;
33266;SDS011;19638;49.080;11.896;2023-09-08T13:04:48;6.15;;;4.15;;
33266;SDS011;19638;49.080;11.896;2023-09-08T13:08:52;11.60;;;4.38;;
33266;SDS011;19638;49.080;11.896;2023-09-08T13:13:01;5.13;;;3.60;;
33266;SDS011;19638;49.080;11.896;2023-09-08T13:17:06;4.95;;;4.35;;
33266;SDS011;19638;49.080;11.896;2023-09-08T13:21:09;8.13;;;3.85;;
33266;SDS011;19638;49.080;11.896;2023-09-08T13:25:12;5.68;;;3.97;;
33266;SDS011;19638;49.080;11.896;2023-09-08T13:29:19;5.78;;;3.97;;
33266;SDS011;19638;49.080;11.896;2023-09-08T13:33:22;5.15;;;4.10;;
33266;SDS011;19638;49.080;11.896;2023-09-08T13:37:26;4.25;;;3.80;;
33266;SDS011;19638;49.080;11.896;2023-09-08T13:41:44;7.35;;;4.38;;
33266;SDS011;19638;49.080;11.896;2023-09-08T13:45:52;7.00;;;4.18;;
33266;SDS011;19638;49.080;11.896;2023-09-08T13:49:58;7.78;;;3.97;;
33266;SDS011;19638;49.080;11.896;2023-09-08T13:54:06;4.75;;;4.05;;
33266;SDS011;19638;49.080;11.896;2023-09-08T13:58:14;4.00;;;3.60;;
33266;SDS011;19638;49.080;11.896;2023-09-08T14:02:24;4.32;;;3.85;;
33266;SDS011;19638;49.080;11.896;2023-09-08T14:06:30;4.90;;;3.88;;
33266;SDS011;19638;49.080;11.896;2023-09-08T14:10:37;5.57;;;4.05;;
33266;SDS011;19638;49.080;11.896;2023-09-08T14:14:48;4.13;;;3.72;;
33266;SDS011;19638;49.080;11.896;2023-09-08T14:18:55;4.47;;;4.05;;
33266;SDS011;19638;49.080;11.896;2023-09-08T14:23:03;4.10;;;3.70;;
33266;SDS011;19638;49.080;11.896;2023-09-08T14:27:09;6.18;;;3.55;;
33266;SDS011;19638;49.080;11.896;2023-09-08T14:31:13;5.68;;;4.20;;
33266;SDS011;19638;49.080;11.896;2023-09-08T14:35:18;5.20;;;4.07;;
33266;SDS011;19638;49.080;11.896;2023-09-08T14:39:21;7.00;;;4.07;;
33266;SDS011;19638;49.080;11.896;2023-09-08T14:43:25;4.18;;;3.78;;
33266;SDS011;19638;49.080;11.896;2023-09-08T14:47:29;4.55;;;4.00;;
33266;SDS011;19638;49.080;11.896;2023-09-08T14:51:34;5.10;;;3.63;;
33266;SDS011;19638;49.080;11.896;2023-09-08T14:55:39;5.35;;;4.55;;
33266;SDS011;19638;49.080;11.896;2023-09-08T14:59:47;4.13;;;3.78;;
33266;SDS011;19638;49.080;11.896;2023-09-08T15:03:57;9.35;;;4.22;;
33266;SDS011;19638;49.080;11.896;2023-09-08T15:08:02;5.55;;;4.20;;
33266;SDS011;19638;49.080;11.896;2023-09-08T15:12:11;7.28;;;4.10;;
33266;SDS011;19638;49.080;11.896;2023-09-08T15:16:17;4.30;;;3.90;;
33266;SDS011;19638;49.080;11.896;2023-09-08T15:20:23;6.45;;;4.32;;
33266;SDS011;19638;49.080;11.896;2023-09-08T15:24:28;5.93;;;3.85;;
33266;SDS011;19638;49.080;11.896;2023-09-08T15:28:33;7.28;;;4.50;;
33266;SDS011;19638;49.080;11.896;2023-09-08T15:32:36;4.63;;;4.15;;
33266;SDS011;19638;49.080;11.896;2023-09-08T15:36:43;5.03;;;3.92;;
33266;SDS011;19638;49.080;11.896;2023-09-08T15:45:22;7.20;;;4.32;;
33266;SDS011;19638;49.080;11.896;2023-09-08T15:49:25;5.03;;;4.30;;
33266;SDS011;19638;49.080;11.896;2023-09-08T15:53:32;5.60;;;4.70;;
33266;SDS011;19638;49.080;11.896;2023-09-08T15:57:42;4.90;;;4.40;;
33266;SDS011;19638;49.080;11.896;2023-09-08T16:01:49;5.68;;;4.47;;
33266;SDS011;19638;49.080;11.896;2023-09-08T16:05:53;4.45;;;4.00;;
33266;SDS011;19638;49.080;11.896;2023-09-08T16:09:57;6.78;;;4.07;;
33266;SDS011;19638;49.080;11.896;2023-09-08T16:14:02;5.18;;;4.38;;
33266;SDS011;19638;49.080;11.896;2023-09-08T16:18:06;6.13;;;4.50;;
33266;SDS011;19638;49.080;11.896;2023-09-08T16:22:12;7.60;;;4.53;;
33266;SDS011;19638;49.080;11.896;2023-09-08T16:26:23;4.60;;;4.05;;
33266;SDS011;19638;49.080;11.896;2023-09-08T16:30:29;6.45;;;4.40;;
33266;SDS011;19638;49.080;11.896;2023-09-08T16:34:33;8.32;;;4.28;;
33266;SDS011;19638;49.080;11.896;2023-09-08T16:38:36;7.07;;;5.63;;
33266;SDS011;19638;49.080;11.896;2023-09-08T16:42:41;8.43;;;6.30;;
33266;SDS011;19638;49.080;11.896;2023-09-08T16:46:46;5.45;;;4.20;;
33266;SDS011;19638;49.080;11.896;2023-09-08T16:50:52;8.18;;;4.35;;
33266;SDS011;19638;49.080;11.896;2023-09-08T16:54:56;4.45;;;4.05;;
33266;SDS011;19638;49.080;11.896;2023-09-08T16:58:59;9.68;;;4.80;;
33266;SDS011;19638;49.080;11.896;2023-09-08T17:03:04;5.15;;;4.55;;
33266;SDS011;19638;49.080;11.896;2023-09-08T17:07:07;6.07;;;4.38;;
33266;SDS011;19638;49.080;11.896;2023-09-08T17:11:10;6.57;;;4.72;;
33266;SDS011;19638;49.080;11.896;2023-09-08T17:15:13;9.85;;;5.35;;
33266;SDS011;19638;49.080;11.896;2023-09-08T17:19:18;7.18;;;4.40;;
33266;SDS011;19638;49.080;11.896;2023-09-08T17:23:23;6.60;;;5.20;;
33266;SDS011;19638;49.080;11.896;2023-09-08T17:27:26;9.77;;;4.78;;
33266;SDS011;19638;49.080;11.896;2023-09-08T17:31:29;6.28;;;4.50;;
33266;SDS011;19638;49.080;11.896;2023-09-08T17:35:35;8.75;;;4.72;;
33266;SDS011;19638;49.080;11.896;2023-09-08T17:39:39;9.60;;;5.10;;
33266;SDS011;19638;49.080;11.896;2023-09-08T17:43:43;9.80;;;5.40;;
33266;SDS011;19638;49.080;11.896;2023-09-08T17:47:48;7.90;;;5.50;;
33266;SDS011;19638;49.080;11.896;2023-09-08T17:51:55;14.43;;;5.28;;
33266;SDS011;19638;49.080;11.896;2023-09-08T17:55:58;8.18;;;4.95;;
33266;SDS011;19638;49.080;11.896;2023-09-08T18:00:04;8.98;;;5.30;;
33266;SDS011;19638;49.080;11.896;2023-09-08T18:04:08;6.47;;;4.72;;
33266;SDS011;19638;49.080;11.896;2023-09-08T18:08:12;8.55;;;5.00;;
33266;SDS011;19638;49.080;11.896;2023-09-08T18:12:17;11.48;;;5.57;;
33266;SDS011;19638;49.080;11.896;2023-09-08T18:16:24;6.43;;;5.13;;
33266;SDS011;19638;49.080;11.896;2023-09-08T18:20:27;8.77;;;5.15;;
33266;SDS011;19638;49.080;11.896;2023-09-08T18:24:35;9.48;;;5.82;;
33266;SDS011;19638;49.080;11.896;2023-09-08T18:28:38;7.95;;;4.78;;
33266;SDS011;19638;49.080;11.896;2023-09-08T18:32:42;6.22;;;5.10;;
33266;SDS011;19638;49.080;11.896;2023-09-08T18:36:45;11.48;;;5.57;;
33266;SDS011;19638;49.080;11.896;2023-09-08T18:40:51;9.77;;;5.57;;
33266;SDS011;19638;49.080;11.896;2023-09-08T18:44:55;6.22;;;5.13;;
33266;SDS011;19638;49.080;11.896;2023-09-08T18:49:00;7.90;;;5.28;;
33266;SDS011;19638;49.080;11.896;2023-09-08T18:53:03;6.90;;;5.22;;
33266;SDS011;19638;49.080;11.896;2023-09-08T18:57:09;6.18;;;5.03;;
33266;SDS011;19638;49.080;11.896;2023-09-08T19:01:14;10.30;;;5.18;;
33266;SDS011;19638;49.080;11.896;2023-09-08T19:05:19;9.25;;;5.57;;
33266;SDS011;19638;49.080;11.896;2023-09-08T19:09:26;7.65;;;5.20;;
33266;SDS011;19638;49.080;11.896;2023-09-08T19:13:34;8.00;;;4.93;;
33266;SDS011;19638;49.080;11.896;2023-09-08T19:17:38;8.05;;;5.35;;
33266;SDS011;19638;49.080;11.896;2023-09-08T19:21:42;10.18;;;5.28;;
33266;SDS011;19638;49.080;11.896;2023-09-08T19:25:48;6.43;;;5.10;;
33266;SDS011;19638;49.080;11.896;2023-09-08T19:29:56;11.20;;;6.10;;
33266;SDS011;19638;49.080;11.896;2023-09-08T19:34:00;7.60;;;5.32;;
33266;SDS011;19638;49.080;11.896;2023-09-08T19:38:04;8.52;;;5.30;;
33266;SDS011;19638;49.080;11.896;2023-09-08T19:42:08;8.10;;;5.75;;
33266;SDS011;19638;49.080;11.896;2023-09-08T19:46:12;9.15;;;5.13;;
33266;SDS011;19638;49.080;11.896;2023-09-08T19:50:15;7.70;;;5.25;;
33266;SDS011;19638;49.080;11.896;2023-09-08T19:54:19;11.05;;;5.30;;
33266;SDS011;19638;49.080;11.896;2023-09-08T19:58:22;10.85;;;6.60;;
33266;SDS011;19638;49.080;11.896;2023-09-08T20:02:26;11.73;;;6.20;;
33266;SDS011;19638;49.080;11.896;2023-09-08T20:06:30;9.65;;;5.47;;
33266;SDS011;19638;49.080;11.896;2023-09-08T20:10:33;8.63;;;5.40;;
33266;SDS011;19638;49.080;11.896;2023-09-08T20:14:40;10.90;;;5.97;;
33266;SDS011;19638;49.080;11.896;2023-09-08T20:18:44;7.68;;;5.88;;
33266;SDS011;19638;49.080;11.896;2023-09-08T20:22:50;15.75;;;6.00;;
33266;SDS011;19638;49.080;11.896;2023-09-08T20:26:56;10.20;;;6.93;;
33266;SDS011;19638;49.080;11.896;2023-09-08T20:30:59;7.45;;;5.95;;
33266;SDS011;19638;49.080;11.896;2023-09-08T20:35:08;6.30;;;5.35;;
33266;SDS011;19638;49.080;11.896;2023-09-08T20:39:11;10.05;;;6.47;;
33266;SDS011;19638;49.080;11.896;2023-09-08T20:43:15;9.32;;;5.95;;
33266;SDS011;19638;49.080;11.896;2023-09-08T20:47:28;9.85;;;6.10;;
33266;SDS011;19638;49.080;11.896;2023-09-08T20:51:33;16.85;;;6.93;;
33266;SDS011;19638;49.080;11.896;2023-09-08T20:55:36;11.30;;;6.50;;
33266;SDS011;19638;49.080;11.896;2023-09-08T20:59:41;10.77;;;6.45;;
33266;SDS011;19638;49.080;11.896;2023-09-08T21:03:45;9.52;;;5.88;;
33266;SDS011;19638;49.080;11.896;2023-09-08T21:07:50;11.95;;;6.45;;
33266;SDS011;19638;49.080;11.896;2023-09-08T21:11:54;8.73;;;6.35;;
33266;SDS011;19638;49.080;11.896;2023-09-08T21:16:00;11.45;;;6.78;;
33266;SDS011;19638;49.080;11.896;2023-09-08T21:20:04;10.95;;;5.93;;
33266;SDS011;19638;49.080;11.896;2023-09-08T21:24:10;11.80;;;6.93;;
33266;SDS011;19638;49.080;11.896;2023-09-08T21:28:16;11.50;;;6.70;;
33266;SDS011;19638;49.080;11.896;2023-09-08T21:32:22;9.30;;;6.47;;
33266;SDS011;19638;49.080;11.896;2023-09-08T21:36:25;8.95;;;6.20;;
33266;SDS011;19638;49.080;11.896;2023-09-08T21:40:35;11.85;;;7.60;;
33266;SDS011;19638;49.080;11.896;2023-09-08T21:44:40;10.52;;;7.03;;
33266;SDS011;19638;49.080;11.896;2023-09-08T21:48:43;10.90;;;6.40;;
33266;SDS011;19638;49.080;11.896;2023-09-08T21:52:49;17.48;;;6.95;;
33266;SDS011;19638;49.080;11.896;2023-09-08T21:56:57;11.73;;;7.65;;
33266;SDS011;19638;49.080;11.896;2023-09-08T22:01:02;9.90;;;6.60;;
33266;SDS011;19638;49.080;11.896;2023-09-08T22:05:07;12.10;;;7.18;;
33266;SDS011;19638;49.080;11.896;2023-09-08T22:09:17;16.42;;;8.52;;
33266;SDS011;19638;49.080;11.896;2023-09-08T22:13:27;11.20;;;7.43;;
33266;SDS011;19638;49.080;11.896;2023-09-08T22:17:30;14.13;;;7.32;;
33266;SDS011;19638;49.080;11.896;2023-09-08T22:21:34;12.82;;;6.88;;
33266;SDS011;19638;49.080;11.896;2023-09-08T22:25:37;11.82;;;7.53;;
33266;SDS011;19638;49.080;11.896;2023-09-08T22:29:42;10.30;;;7.00;;
33266;SDS011;19638;49.080;11.896;2023-09-08T22:33:46;16.48;;;8.60;;
33266;SDS011;19638;49.080;11.896;2023-09-08T22:37:52;11.57;;;7.78;;
33266;SDS011;19638;49.080;11.896;2023-09-08T22:41:59;11.45;;;7.57;;
33266;SDS011;19638;49.080;11.896;2023-09-08T22:46:06;12.32;;;8.10;;
33266;SDS011;19638;49.080;11.896;2023-09-08T22:50:12;12.13;;;8.18;;
33266;SDS011;19638;49.080;11.896;2023-09-08T22:54:18;14.18;;;8.60;;
33266;SDS011;19638;49.080;11.896;2023-09-08T22:58:21;14.90;;;8.65;;
33266;SDS011;19638;49.080;11.896;2023-09-08T23:02:28;15.65;;;8.80;;
33266;SDS011;19638;49.080;11.896;2023-09-08T23:06:32;13.20;;;7.90;;
33266;SDS011;19638;49.080;11.896;2023-09-08T23:10:35;17.85;;;9.23;;
33266;SDS011;19638;49.080;11.896;2023-09-08T23:14:38;14.73;;;8.80;;
33266;SDS011;19638;49.080;11.896;2023-09-08T23:18:56;12.07;;;8.50;;
33266;SDS011;19638;49.080;11.896;2023-09-08T23:23:00;11.55;;;7.95;;
33266;SDS011;19638;49.080;11.896;2023-09-08T23:27:06;10.70;;;8.25;;
33266;SDS011;19638;49.080;11.896;2023-09-08T23:31:09;17.77;;;9.45;;
33266;SDS011;19638;49.080;11.896;2023-09-08T23:35:17;16.00;;;9.38;;
33266;SDS011;19638;49.080;11.896;2023-09-08T23:39:23;16.15;;;9.75;;
33266;SDS011;19638;49.080;11.896;2023-09-08T23:43:26;17.98;;;9.93;;
33266;SDS011;19638;49.080;11.896;2023-09-08T23:47:31;12.80;;;8.38;;
33266;SDS011;19638;49.080;11.896;2023-09-08T23:51:36;16.92;;;9.45;;
33266;SDS011;19638;49.080;11.896;2023-09-08T23:55:39;14.90;;;8.70;;
33266;SDS011;19638;49.080;11.896;2023-09-08T23:59:43;22.00;;;10.50;;
